sensor_id;sensor_type;location;lat;lon;timestamp;temperature;humidity
67572;SHT31;54397;47.506;19.158;2023-05-19T00:00:38;14.40;91.83
67572;SHT31;54397;47.506;19.158;2023-05-19T00:04:03;14.41;91.90
67572;SHT31;54397;47.506;19.158;2023-05-19T00:07:29;14.37;90.98
67572;SHT31;54397;47.506;19.158;2023-05-19T00:10:51;14.38;90.57
67572;SHT31;54397;47.506;19.158;2023-05-19T00:14:15;14.40;90.55
67572;SHT31;54397;47.506;19.158;2023-05-19T00:17:39;14.34;91.33
67572;SHT31;54397;47.506;19.158;2023-05-19T00:21:03;14.23;91.56
67572;SHT31;54397;47.506;19.158;2023-05-19T00:24:24;14.23;91.58
67572;SHT31;54397;47.506;19.158;2023-05-19T00:27:49;14.19;89.75
67572;SHT31;54397;47.506;19.158;2023-05-19T00:31:11;14.19;90.08
67572;SHT31;54397;47.506;19.158;2023-05-19T00:34:32;14.09;91.25
67572;SHT31;54397;47.506;19.158;2023-05-19T00:37:57;14.12;90.88
67572;SHT31;54397;47.506;19.158;2023-05-19T00:41:19;14.09;91.11
67572;SHT31;54397;47.506;19.158;2023-05-19T00:44:41;14.12;91.61
67572;SHT31;54397;47.506;19.158;2023-05-19T00:48:03;14.10;91.39
67572;SHT31;54397;47.506;19.158;2023-05-19T00:51:25;14.16;91.14
67572;SHT31;54397;47.506;19.158;2023-05-19T00:54:50;14.17;91.20
67572;SHT31;54397;47.506;19.158;2023-05-19T00:58:16;14.20;91.11
67572;SHT31;54397;47.506;19.158;2023-05-19T01:01:41;14.12;91.85
67572;SHT31;54397;47.506;19.158;2023-05-19T01:05:09;14.05;92.23
67572;SHT31;54397;47.506;19.158;2023-05-19T01:08:34;14.17;91.58
67572;SHT31;54397;47.506;19.158;2023-05-19T01:11:59;14.03;92.17
67572;SHT31;54397;47.506;19.158;2023-05-19T01:15:25;14.09;91.50
67572;SHT31;54397;47.506;19.158;2023-05-19T01:33:29;14.23;90.31
67572;SHT31;54397;47.506;19.158;2023-05-19T01:36:53;14.17;90.73
67572;SHT31;54397;47.506;19.158;2023-05-19T01:40:16;14.13;91.03
67572;SHT31;54397;47.506;19.158;2023-05-19T01:43:39;13.99;91.93
67572;SHT31;54397;47.506;19.158;2023-05-19T01:47:01;14.01;91.92
67572;SHT31;54397;47.506;19.158;2023-05-19T01:50:23;14.14;91.05
67572;SHT31;54397;47.506;19.158;2023-05-19T01:53:44;14.08;91.38
67572;SHT31;54397;47.506;19.158;2023-05-19T01:57:23;14.10;91.23
67572;SHT31;54397;47.506;19.158;2023-05-19T02:04:24;14.08;91.34
67572;SHT31;54397;47.506;19.158;2023-05-19T02:08:19;13.96;92.05
67572;SHT31;54397;47.506;19.158;2023-05-19T02:18:31;13.82;92.54
67572;SHT31;54397;47.506;19.158;2023-05-19T02:21:56;13.76;92.83
67572;SHT31;54397;47.506;19.158;2023-05-19T02:25:17;13.69;92.83
67572;SHT31;54397;47.506;19.158;2023-05-19T02:28:42;13.69;93.32
67572;SHT31;54397;47.506;19.158;2023-05-19T02:32:06;13.74;93.02
67572;SHT31;54397;47.506;19.158;2023-05-19T02:35:28;13.69;93.01
67572;SHT31;54397;47.506;19.158;2023-05-19T02:38:50;13.66;93.15
67572;SHT31;54397;47.506;19.158;2023-05-19T02:42:11;13.66;93.38
67572;SHT31;54397;47.506;19.158;2023-05-19T02:45:35;13.64;93.36
67572;SHT31;54397;47.506;19.158;2023-05-19T02:48:56;13.71;93.14
67572;SHT31;54397;47.506;19.158;2023-05-19T02:52:20;13.74;93.32
67572;SHT31;54397;47.506;19.158;2023-05-19T02:55:42;13.78;92.30
67572;SHT31;54397;47.506;19.158;2023-05-19T02:59:06;13.72;92.32
67572;SHT31;54397;47.506;19.158;2023-05-19T03:02:27;13.64;93.68
67572;SHT31;54397;47.506;19.158;2023-05-19T03:05:50;13.61;93.73
67572;SHT31;54397;47.506;19.158;2023-05-19T03:09:12;13.65;93.59
67572;SHT31;54397;47.506;19.158;2023-05-19T03:12:36;13.74;93.40
67572;SHT31;54397;47.506;19.158;2023-05-19T03:15:57;13.82;92.59
67572;SHT31;54397;47.506;19.158;2023-05-19T03:19:22;13.93;91.87
67572;SHT31;54397;47.506;19.158;2023-05-19T03:22:43;13.85;92.56
67572;SHT31;54397;47.506;19.158;2023-05-19T03:26:08;13.75;93.25
67572;SHT31;54397;47.506;19.158;2023-05-19T03:29:29;13.76;93.34
67572;SHT31;54397;47.506;19.158;2023-05-19T03:32:53;13.79;93.39
67572;SHT31;54397;47.506;19.158;2023-05-19T03:36:17;13.75;93.54
67572;SHT31;54397;47.506;19.158;2023-05-19T03:39:39;13.96;92.97
67572;SHT31;54397;47.506;19.158;2023-05-19T03:43:01;13.89;93.19
67572;SHT31;54397;47.506;19.158;2023-05-19T03:46:23;13.98;93.08
67572;SHT31;54397;47.506;19.158;2023-05-19T03:49:45;13.98;92.85
67572;SHT31;54397;47.506;19.158;2023-05-19T03:53:06;14.01;93.05
67572;SHT31;54397;47.506;19.158;2023-05-19T03:56:28;14.05;92.08
67572;SHT31;54397;47.506;19.158;2023-05-19T03:59:50;14.14;91.61
67572;SHT31;54397;47.506;19.158;2023-05-19T04:03:11;14.19;91.38
67572;SHT31;54397;47.506;19.158;2023-05-19T04:06:36;14.20;92.09
67572;SHT31;54397;47.506;19.158;2023-05-19T04:09:58;14.31;91.84
67572;SHT31;54397;47.506;19.158;2023-05-19T04:13:20;14.45;91.39
67572;SHT31;54397;47.506;19.158;2023-05-19T04:16:42;14.47;91.20
67572;SHT31;54397;47.506;19.158;2023-05-19T04:20:04;14.57;90.74
67572;SHT31;54397;47.506;19.158;2023-05-19T04:23:31;14.50;91.44
67572;SHT31;54397;47.506;19.158;2023-05-19T04:26:53;14.44;92.47
67572;SHT31;54397;47.506;19.158;2023-05-19T04:30:17;14.43;92.66
67572;SHT31;54397;47.506;19.158;2023-05-19T04:33:43;14.48;91.70
67572;SHT31;54397;47.506;19.158;2023-05-19T04:37:08;14.60;91.54
67572;SHT31;54397;47.506;19.158;2023-05-19T04:40:30;14.65;90.71
67572;SHT31;54397;47.506;19.158;2023-05-19T04:43:52;14.68;90.44
67572;SHT31;54397;47.506;19.158;2023-05-19T04:47:14;14.72;91.15
67572;SHT31;54397;47.506;19.158;2023-05-19T04:50:38;14.64;91.06
67572;SHT31;54397;47.506;19.158;2023-05-19T04:54:02;14.61;92.01
67572;SHT31;54397;47.506;19.158;2023-05-19T04:57:24;14.58;91.98
67572;SHT31;54397;47.506;19.158;2023-05-19T05:00:48;14.71;92.19
67572;SHT31;54397;47.506;19.158;2023-05-19T05:04:12;14.84;91.67
67572;SHT31;54397;47.506;19.158;2023-05-19T05:07:33;14.99;91.62
67572;SHT31;54397;47.506;19.158;2023-05-19T05:10:55;14.98;90.12
67572;SHT31;54397;47.506;19.158;2023-05-19T05:14:20;14.60;90.11
67572;SHT31;54397;47.506;19.158;2023-05-19T05:17:44;14.81;89.54
67572;SHT31;54397;47.506;19.158;2023-05-19T05:21:07;15.10;89.59
67572;SHT31;54397;47.506;19.158;2023-05-19T05:24:31;15.36;90.32
67572;SHT31;54397;47.506;19.158;2023-05-19T05:27:53;15.51;88.94
67572;SHT31;54397;47.506;19.158;2023-05-19T05:31:15;15.50;88.06
67572;SHT31;54397;47.506;19.158;2023-05-19T05:34:37;15.46;87.90
67572;SHT31;54397;47.506;19.158;2023-05-19T05:38:03;15.39;88.05
67572;SHT31;54397;47.506;19.158;2023-05-19T05:41:25;15.33;89.25
67572;SHT31;54397;47.506;19.158;2023-05-19T05:44:47;15.49;89.10
67572;SHT31;54397;47.506;19.158;2023-05-19T05:48:13;15.63;88.76
67572;SHT31;54397;47.506;19.158;2023-05-19T05:51:36;15.83;88.89
67572;SHT31;54397;47.506;19.158;2023-05-19T05:54:58;16.16;87.92
67572;SHT31;54397;47.506;19.158;2023-05-19T05:58:22;16.01;85.81
67572;SHT31;54397;47.506;19.158;2023-05-19T06:01:44;15.90;86.18
67572;SHT31;54397;47.506;19.158;2023-05-19T06:05:08;16.38;85.82
67572;SHT31;54397;47.506;19.158;2023-05-19T06:08:32;16.40;84.99
67572;SHT31;54397;47.506;19.158;2023-05-19T06:11:55;16.33;85.69
67572;SHT31;54397;47.506;19.158;2023-05-19T06:15:17;16.00;86.52
67572;SHT31;54397;47.506;19.158;2023-05-19T06:18:38;16.11;86.35
67572;SHT31;54397;47.506;19.158;2023-05-19T06:22:00;16.05;86.19
67572;SHT31;54397;47.506;19.158;2023-05-19T06:25:22;15.84;85.87
67572;SHT31;54397;47.506;19.158;2023-05-19T06:28:48;15.98;86.85
67572;SHT31;54397;47.506;19.158;2023-05-19T06:32:10;16.21;87.24
67572;SHT31;54397;47.506;19.158;2023-05-19T06:35:31;16.43;86.43
67572;SHT31;54397;47.506;19.158;2023-05-19T06:38:55;16.64;84.88
67572;SHT31;54397;47.506;19.158;2023-05-19T06:42:19;16.36;84.46
67572;SHT31;54397;47.506;19.158;2023-05-19T06:45:43;16.33;84.85
67572;SHT31;54397;47.506;19.158;2023-05-19T06:49:06;16.39;84.58
67572;SHT31;54397;47.506;19.158;2023-05-19T06:52:28;16.45;84.72
67572;SHT31;54397;47.506;19.158;2023-05-19T06:55:52;16.30;83.85
67572;SHT31;54397;47.506;19.158;2023-05-19T06:59:22;16.26;84.54
67572;SHT31;54397;47.506;19.158;2023-05-19T07:02:43;16.60;85.23
67572;SHT31;54397;47.506;19.158;2023-05-19T07:06:05;17.10;84.36
67572;SHT31;54397;47.506;19.158;2023-05-19T07:09:31;17.84;81.70
67572;SHT31;54397;47.506;19.158;2023-05-19T07:12:53;17.76;81.12
67572;SHT31;54397;47.506;19.158;2023-05-19T07:16:17;17.66;80.44
67572;SHT31;54397;47.506;19.158;2023-05-19T07:19:39;17.70;79.38
67572;SHT31;54397;47.506;19.158;2023-05-19T07:23:03;17.66;78.03
67572;SHT31;54397;47.506;19.158;2023-05-19T07:26:25;17.82;78.15
67572;SHT31;54397;47.506;19.158;2023-05-19T07:29:49;17.87;77.63
67572;SHT31;54397;47.506;19.158;2023-05-19T07:33:13;18.31;79.01
67572;SHT31;54397;47.506;19.158;2023-05-19T07:36:35;18.89;78.43
67572;SHT31;54397;47.506;19.158;2023-05-19T07:39:57;18.76;73.87
67572;SHT31;54397;47.506;19.158;2023-05-19T07:43:19;18.70;74.08
67572;SHT31;54397;47.506;19.158;2023-05-19T07:46:40;18.85;75.87
67572;SHT31;54397;47.506;19.158;2023-05-19T07:50:02;19.06;74.53
67572;SHT31;54397;47.506;19.158;2023-05-19T07:53:24;18.69;72.34
67572;SHT31;54397;47.506;19.158;2023-05-19T07:56:46;18.80;73.02
67572;SHT31;54397;47.506;19.158;2023-05-19T08:00:09;19.20;73.22
67572;SHT31;54397;47.506;19.158;2023-05-19T08:03:32;20.17;71.34
67572;SHT31;54397;47.506;19.158;2023-05-19T08:06:54;20.08;70.65
67572;SHT31;54397;47.506;19.158;2023-05-19T08:10:16;20.37;68.89
67572;SHT31;54397;47.506;19.158;2023-05-19T08:13:38;19.97;69.27
67572;SHT31;54397;47.506;19.158;2023-05-19T08:16:59;19.20;69.57
67572;SHT31;54397;47.506;19.158;2023-05-19T08:20:21;19.85;69.59
67572;SHT31;54397;47.506;19.158;2023-05-19T08:23:44;21.02;69.67
67572;SHT31;54397;47.506;19.158;2023-05-19T08:27:08;21.53;66.25
67572;SHT31;54397;47.506;19.158;2023-05-19T08:30:31;21.92;65.76
67572;SHT31;54397;47.506;19.158;2023-05-19T08:33:55;22.01;65.83
67572;SHT31;54397;47.506;19.158;2023-05-19T08:37:19;22.02;66.32
67572;SHT31;54397;47.506;19.158;2023-05-19T08:40:41;22.19;63.94
67572;SHT31;54397;47.506;19.158;2023-05-19T08:44:03;22.29;65.07
67572;SHT31;54397;47.506;19.158;2023-05-19T08:47:25;22.19;64.32
67572;SHT31;54397;47.506;19.158;2023-05-19T08:51:09;21.85;64.07
67572;SHT31;54397;47.506;19.158;2023-05-19T08:54:40;21.61;63.56
67572;SHT31;54397;47.506;19.158;2023-05-19T08:58:05;22.40;65.12
67572;SHT31;54397;47.506;19.158;2023-05-19T09:01:27;21.74;63.29
67572;SHT31;54397;47.506;19.158;2023-05-19T09:04:54;20.72;66.28
67572;SHT31;54397;47.506;19.158;2023-05-19T09:08:18;20.75;67.97
67572;SHT31;54397;47.506;19.158;2023-05-19T09:11:44;21.39;67.94
67572;SHT31;54397;47.506;19.158;2023-05-19T09:15:07;22.23;66.06
67572;SHT31;54397;47.506;19.158;2023-05-19T09:18:30;22.22;62.73
67572;SHT31;54397;47.506;19.158;2023-05-19T09:22:01;22.84;64.44
67572;SHT31;54397;47.506;19.158;2023-05-19T09:25:28;22.81;63.69
67572;SHT31;54397;47.506;19.158;2023-05-19T09:28:56;22.31;63.24
67572;SHT31;54397;47.506;19.158;2023-05-19T09:32:24;21.85;63.55
67572;SHT31;54397;47.506;19.158;2023-05-19T09:35:53;21.50;63.73
67572;SHT31;54397;47.506;19.158;2023-05-19T09:39:18;21.49;66.42
67572;SHT31;54397;47.506;19.158;2023-05-19T09:42:42;21.61;62.58
67572;SHT31;54397;47.506;19.158;2023-05-19T09:46:10;21.32;63.32
67572;SHT31;54397;47.506;19.158;2023-05-19T09:49:38;21.33;66.31
67572;SHT31;54397;47.506;19.158;2023-05-19T09:53:06;21.91;64.72
67572;SHT31;54397;47.506;19.158;2023-05-19T09:56:33;22.66;62.99
67572;SHT31;54397;47.506;19.158;2023-05-19T09:59:54;23.08;61.12
67572;SHT31;54397;47.506;19.158;2023-05-19T10:03:18;23.00;60.26
67572;SHT31;54397;47.506;19.158;2023-05-19T10:06:40;23.10;56.97
67572;SHT31;54397;47.506;19.158;2023-05-19T10:10:03;23.66;58.95
67572;SHT31;54397;47.506;19.158;2023-05-19T10:13:25;23.59;57.62
67572;SHT31;54397;47.506;19.158;2023-05-19T10:16:55;23.56;57.37
67572;SHT31;54397;47.506;19.158;2023-05-19T10:20:17;23.56;61.14
67572;SHT31;54397;47.506;19.158;2023-05-19T10:23:44;23.82;58.84
67572;SHT31;54397;47.506;19.158;2023-05-19T10:27:10;24.18;59.36
67572;SHT31;54397;47.506;19.158;2023-05-19T10:30:34;24.54;56.86
67572;SHT31;54397;47.506;19.158;2023-05-19T10:48:21;25.12;55.22
67572;SHT31;54397;47.506;19.158;2023-05-19T10:51:46;25.10;55.98
67572;SHT31;54397;47.506;19.158;2023-05-19T10:55:13;24.68;57.36
67572;SHT31;54397;47.506;19.158;2023-05-19T10:58:38;24.28;57.50
67572;SHT31;54397;47.506;19.158;2023-05-19T11:02:07;23.92;59.19
67572;SHT31;54397;47.506;19.158;2023-05-19T11:05:29;24.32;58.83
67572;SHT31;54397;47.506;19.158;2023-05-19T11:12:22;23.93;55.36
67572;SHT31;54397;47.506;19.158;2023-05-19T11:15:45;23.76;55.61
67572;SHT31;54397;47.506;19.158;2023-05-19T11:19:08;23.86;57.79
67572;SHT31;54397;47.506;19.158;2023-05-19T11:22:35;23.55;56.77
67572;SHT31;54397;47.506;19.158;2023-05-19T11:26:00;23.42;58.12
67572;SHT31;54397;47.506;19.158;2023-05-19T11:29:23;23.31;58.81
67572;SHT31;54397;47.506;19.158;2023-05-19T11:32:46;23.12;57.64
67572;SHT31;54397;47.506;19.158;2023-05-19T11:36:11;23.62;59.40
67572;SHT31;54397;47.506;19.158;2023-05-19T11:39:34;23.48;58.42
67572;SHT31;54397;47.506;19.158;2023-05-19T11:42:56;23.38;60.21
67572;SHT31;54397;47.506;19.158;2023-05-19T11:46:18;23.35;59.58
67572;SHT31;54397;47.506;19.158;2023-05-19T11:49:44;23.45;57.79
67572;SHT31;54397;47.506;19.158;2023-05-19T11:53:06;23.79;58.17
67572;SHT31;54397;47.506;19.158;2023-05-19T11:56:39;23.51;57.90
67572;SHT31;54397;47.506;19.158;2023-05-19T12:00:03;23.94;58.78
67572;SHT31;54397;47.506;19.158;2023-05-19T12:03:29;24.44;57.37
67572;SHT31;54397;47.506;19.158;2023-05-19T12:06:53;24.04;57.02
67572;SHT31;54397;47.506;19.158;2023-05-19T12:10:30;23.77;60.08
67572;SHT31;54397;47.506;19.158;2023-05-19T12:13:54;23.70;60.33
67572;SHT31;54397;47.506;19.158;2023-05-19T12:17:21;23.61;58.94
67572;SHT31;54397;47.506;19.158;2023-05-19T12:20:48;23.14;59.75
67572;SHT31;54397;47.506;19.158;2023-05-19T12:24:14;22.83;58.33
67572;SHT31;54397;47.506;19.158;2023-05-19T12:27:36;23.15;60.57
67572;SHT31;54397;47.506;19.158;2023-05-19T12:30:58;23.42;58.93
67572;SHT31;54397;47.506;19.158;2023-05-19T12:34:20;23.49;57.96
67572;SHT31;54397;47.506;19.158;2023-05-19T12:37:42;23.74;59.55
67572;SHT31;54397;47.506;19.158;2023-05-19T12:41:04;23.87;58.11
67572;SHT31;54397;47.506;19.158;2023-05-19T12:44:27;24.01;58.12
67572;SHT31;54397;47.506;19.158;2023-05-19T12:47:54;23.87;59.58
67572;SHT31;54397;47.506;19.158;2023-05-19T12:51:20;23.51;58.88
67572;SHT31;54397;47.506;19.158;2023-05-19T12:54:42;23.42;59.04
67572;SHT31;54397;47.506;19.158;2023-05-19T12:58:05;23.34;60.43
67572;SHT31;54397;47.506;19.158;2023-05-19T13:01:28;23.19;59.23
67572;SHT31;54397;47.506;19.158;2023-05-19T13:04:50;23.41;58.05
67572;SHT31;54397;47.506;19.158;2023-05-19T13:08:16;23.61;56.95
67572;SHT31;54397;47.506;19.158;2023-05-19T13:11:38;23.90;54.95
67572;SHT31;54397;47.506;19.158;2023-05-19T13:15:01;23.93;56.10
67572;SHT31;54397;47.506;19.158;2023-05-19T13:18:22;24.10;56.98
67572;SHT31;54397;47.506;19.158;2023-05-19T13:21:45;23.93;57.47
67572;SHT31;54397;47.506;19.158;2023-05-19T13:25:11;23.84;58.31
67572;SHT31;54397;47.506;19.158;2023-05-19T13:28:33;23.84;56.27
67572;SHT31;54397;47.506;19.158;2023-05-19T13:31:55;23.96;57.49
67572;SHT31;54397;47.506;19.158;2023-05-19T13:35:21;23.99;55.39
67572;SHT31;54397;47.506;19.158;2023-05-19T13:38:42;23.66;57.21
67572;SHT31;54397;47.506;19.158;2023-05-19T13:42:07;23.87;57.17
67572;SHT31;54397;47.506;19.158;2023-05-19T13:45:29;24.03;55.76
67572;SHT31;54397;47.506;19.158;2023-05-19T13:48:50;23.99;55.35
67572;SHT31;54397;47.506;19.158;2023-05-19T13:52:15;24.18;53.72
67572;SHT31;54397;47.506;19.158;2023-05-19T13:55:37;24.27;55.01
67572;SHT31;54397;47.506;19.158;2023-05-19T13:58:58;24.35;54.98
67572;SHT31;54397;47.506;19.158;2023-05-19T14:02:20;24.51;54.31
67572;SHT31;54397;47.506;19.158;2023-05-19T14:05:42;24.54;54.12
67572;SHT31;54397;47.506;19.158;2023-05-19T14:09:04;24.28;54.55
67572;SHT31;54397;47.506;19.158;2023-05-19T14:12:30;24.16;54.87
67572;SHT31;54397;47.506;19.158;2023-05-19T14:16:07;23.92;53.21
67572;SHT31;54397;47.506;19.158;2023-05-19T14:19:31;23.82;52.47
67572;SHT31;54397;47.506;19.158;2023-05-19T14:22:53;24.03;55.20
67572;SHT31;54397;47.506;19.158;2023-05-19T14:26:15;24.06;53.67
67572;SHT31;54397;47.506;19.158;2023-05-19T14:29:37;23.99;52.18
67572;SHT31;54397;47.506;19.158;2023-05-19T14:32:59;24.11;54.21
67572;SHT31;54397;47.506;19.158;2023-05-19T14:36:21;24.35;56.83
67572;SHT31;54397;47.506;19.158;2023-05-19T14:39:42;24.51;55.96
67572;SHT31;54397;47.506;19.158;2023-05-19T14:43:04;24.45;54.64
67572;SHT31;54397;47.506;19.158;2023-05-19T14:46:28;24.31;55.01
67572;SHT31;54397;47.506;19.158;2023-05-19T14:49:55;24.00;56.43
67572;SHT31;54397;47.506;19.158;2023-05-19T14:53:16;23.74;56.06
67572;SHT31;54397;47.506;19.158;2023-05-19T14:56:38;23.69;55.37
67572;SHT31;54397;47.506;19.158;2023-05-19T15:00:02;23.80;56.25
67572;SHT31;54397;47.506;19.158;2023-05-19T15:03:24;23.89;56.53
67572;SHT31;54397;47.506;19.158;2023-05-19T15:06:46;23.97;55.40
67572;SHT31;54397;47.506;19.158;2023-05-19T15:10:21;24.03;54.12
67572;SHT31;54397;47.506;19.158;2023-05-19T15:13:45;24.11;55.75
67572;SHT31;54397;47.506;19.158;2023-05-19T15:17:12;24.21;56.53
67572;SHT31;54397;47.506;19.158;2023-05-19T15:20:33;24.21;55.34
67572;SHT31;54397;47.506;19.158;2023-05-19T15:23:55;24.21;56.43
67572;SHT31;54397;47.506;19.158;2023-05-19T15:27:17;24.03;54.78
67572;SHT31;54397;47.506;19.158;2023-05-19T15:30:39;23.76;54.53
67572;SHT31;54397;47.506;19.158;2023-05-19T15:34:01;23.74;54.96
67572;SHT31;54397;47.506;19.158;2023-05-19T15:37:25;23.66;55.59
67572;SHT31;54397;47.506;19.158;2023-05-19T15:40:46;23.72;55.41
67572;SHT31;54397;47.506;19.158;2023-05-19T15:44:11;23.58;55.79
67572;SHT31;54397;47.506;19.158;2023-05-19T15:47:37;23.51;57.35
67572;SHT31;54397;47.506;19.158;2023-05-19T15:51:04;23.63;56.47
67572;SHT31;54397;47.506;19.158;2023-05-19T15:54:28;23.55;56.68
67572;SHT31;54397;47.506;19.158;2023-05-19T15:57:50;23.48;57.43
67572;SHT31;54397;47.506;19.158;2023-05-19T16:01:12;23.38;57.34
67572;SHT31;54397;47.506;19.158;2023-05-19T16:04:34;23.31;57.37
67572;SHT31;54397;47.506;19.158;2023-05-19T16:07:56;23.24;57.54
67572;SHT31;54397;47.506;19.158;2023-05-19T16:11:17;23.22;57.84
67572;SHT31;54397;47.506;19.158;2023-05-19T16:14:43;23.27;57.56
67572;SHT31;54397;47.506;19.158;2023-05-19T16:18:10;23.19;58.18
67572;SHT31;54397;47.506;19.158;2023-05-19T16:21:32;23.25;57.57
67572;SHT31;54397;47.506;19.158;2023-05-19T16:24:57;23.28;57.84
67572;SHT31;54397;47.506;19.158;2023-05-19T16:28:21;23.15;58.16
67572;SHT31;54397;47.506;19.158;2023-05-19T16:31:45;23.10;58.52
67572;SHT31;54397;47.506;19.158;2023-05-19T16:35:07;22.98;59.02
67572;SHT31;54397;47.506;19.158;2023-05-19T16:38:29;22.86;58.45
67572;SHT31;54397;47.506;19.158;2023-05-19T16:41:54;22.90;58.34
67572;SHT31;54397;47.506;19.158;2023-05-19T16:45:16;22.73;58.43
67572;SHT31;54397;47.506;19.158;2023-05-19T16:48:40;22.57;59.59
67572;SHT31;54397;47.506;19.158;2023-05-19T16:52:02;22.48;59.06
67572;SHT31;54397;47.506;19.158;2023-05-19T16:55:26;22.40;58.97
67572;SHT31;54397;47.506;19.158;2023-05-19T16:58:48;22.29;59.04
67572;SHT31;54397;47.506;19.158;2023-05-19T17:02:09;22.19;58.99
67572;SHT31;54397;47.506;19.158;2023-05-19T17:05:31;22.19;59.25
67572;SHT31;54397;47.506;19.158;2023-05-19T17:08:56;22.15;59.72
67572;SHT31;54397;47.506;19.158;2023-05-19T17:12:18;22.06;60.18
67572;SHT31;54397;47.506;19.158;2023-05-19T17:15:39;22.08;60.34
67572;SHT31;54397;47.506;19.158;2023-05-19T17:19:03;22.00;60.66
67572;SHT31;54397;47.506;19.158;2023-05-19T17:22:27;21.85;61.30
67572;SHT31;54397;47.506;19.158;2023-05-19T17:25:55;21.81;61.91
67572;SHT31;54397;47.506;19.158;2023-05-19T17:29:17;21.70;62.41
67572;SHT31;54397;47.506;19.158;2023-05-19T17:32:41;21.67;62.73
67572;SHT31;54397;47.506;19.158;2023-05-19T17:36:08;21.61;63.19
67572;SHT31;54397;47.506;19.158;2023-05-19T17:39:30;21.56;63.20
67572;SHT31;54397;47.506;19.158;2023-05-19T17:42:56;21.56;63.63
67572;SHT31;54397;47.506;19.158;2023-05-19T17:46:18;21.42;63.90
67572;SHT31;54397;47.506;19.158;2023-05-19T17:49:40;21.39;64.03
67572;SHT31;54397;47.506;19.158;2023-05-19T17:53:02;21.26;64.38
67572;SHT31;54397;47.506;19.158;2023-05-19T17:56:24;21.16;65.44
67572;SHT31;54397;47.506;19.158;2023-05-19T17:59:49;21.00;66.77
67572;SHT31;54397;47.506;19.158;2023-05-19T18:03:11;20.89;67.16
67572;SHT31;54397;47.506;19.158;2023-05-19T18:06:35;20.79;68.04
67572;SHT31;54397;47.506;19.158;2023-05-19T18:09:59;20.68;68.80
67572;SHT31;54397;47.506;19.158;2023-05-19T18:13:21;20.55;69.72
67572;SHT31;54397;47.506;19.158;2023-05-19T18:16:46;20.36;71.37
67572;SHT31;54397;47.506;19.158;2023-05-19T18:20:10;20.16;71.98
67572;SHT31;54397;47.506;19.158;2023-05-19T18:23:32;20.06;72.71
67572;SHT31;54397;47.506;19.158;2023-05-19T18:26:54;20.02;72.91
67572;SHT31;54397;47.506;19.158;2023-05-19T18:30:18;20.10;72.65
67572;SHT31;54397;47.506;19.158;2023-05-19T18:33:40;19.96;73.92
67572;SHT31;54397;47.506;19.158;2023-05-19T18:37:02;20.02;73.65
67572;SHT31;54397;47.506;19.158;2023-05-19T18:40:24;19.89;74.31
67572;SHT31;54397;47.506;19.158;2023-05-19T18:43:46;19.81;74.80
67572;SHT31;54397;47.506;19.158;2023-05-19T18:47:07;19.75;75.08
67572;SHT31;54397;47.506;19.158;2023-05-19T18:50:29;19.74;74.99
67572;SHT31;54397;47.506;19.158;2023-05-19T18:53:56;19.72;75.24
67572;SHT31;54397;47.506;19.158;2023-05-19T18:57:21;19.54;75.94
67572;SHT31;54397;47.506;19.158;2023-05-19T19:00:45;19.44;76.64
67572;SHT31;54397;47.506;19.158;2023-05-19T19:04:07;19.38;77.20
67572;SHT31;54397;47.506;19.158;2023-05-19T19:07:29;19.38;77.24
67572;SHT31;54397;47.506;19.158;2023-05-19T19:10:51;19.23;77.40
67572;SHT31;54397;47.506;19.158;2023-05-19T19:14:15;19.10;78.17
67572;SHT31;54397;47.506;19.158;2023-05-19T19:17:37;19.27;77.51
67572;SHT31;54397;47.506;19.158;2023-05-19T19:21:03;19.20;77.57
67572;SHT31;54397;47.506;19.158;2023-05-19T19:24:26;19.26;77.63
67572;SHT31;54397;47.506;19.158;2023-05-19T19:27:51;19.04;78.52
67572;SHT31;54397;47.506;19.158;2023-05-19T19:31:13;18.82;79.52
67572;SHT31;54397;47.506;19.158;2023-05-19T19:34:34;18.82;79.77
67572;SHT31;54397;47.506;19.158;2023-05-19T19:37:56;18.80;79.46
67572;SHT31;54397;47.506;19.158;2023-05-19T19:41:18;18.93;78.92
67572;SHT31;54397;47.506;19.158;2023-05-19T19:44:43;18.85;79.08
67572;SHT31;54397;47.506;19.158;2023-05-19T19:48:05;18.72;79.16
67572;SHT31;54397;47.506;19.158;2023-05-19T19:51:29;18.63;78.70
67572;SHT31;54397;47.506;19.158;2023-05-19T19:54:52;18.53;79.75
67572;SHT31;54397;47.506;19.158;2023-05-19T19:58:18;18.44;80.42
67572;SHT31;54397;47.506;19.158;2023-05-19T20:01:40;18.58;80.13
67572;SHT31;54397;47.506;19.158;2023-05-19T20:05:05;18.70;79.79
67572;SHT31;54397;47.506;19.158;2023-05-19T20:08:27;18.75;79.79
67572;SHT31;54397;47.506;19.158;2023-05-19T20:11:51;18.65;80.27
67572;SHT31;54397;47.506;19.158;2023-05-19T20:15:13;18.70;80.25
67572;SHT31;54397;47.506;19.158;2023-05-19T20:18:35;18.89;79.70
67572;SHT31;54397;47.506;19.158;2023-05-19T20:21:56;18.89;79.68
67572;SHT31;54397;47.506;19.158;2023-05-19T20:25:20;18.77;80.34
67572;SHT31;54397;47.506;19.158;2023-05-19T20:28:44;18.73;80.49
67572;SHT31;54397;47.506;19.158;2023-05-19T20:32:08;18.72;80.50
67572;SHT31;54397;47.506;19.158;2023-05-19T20:35:32;18.70;80.34
67572;SHT31;54397;47.506;19.158;2023-05-19T20:38:54;18.59;81.18
67572;SHT31;54397;47.506;19.158;2023-05-19T20:42:16;18.68;80.77
67572;SHT31;54397;47.506;19.158;2023-05-19T20:45:38;18.59;81.47
67572;SHT31;54397;47.506;19.158;2023-05-19T20:48:59;18.55;81.46
67572;SHT31;54397;47.506;19.158;2023-05-19T20:52:21;18.65;81.12
67572;SHT31;54397;47.506;19.158;2023-05-19T20:55:43;18.55;81.49
67572;SHT31;54397;47.506;19.158;2023-05-19T20:59:06;18.53;81.60
67572;SHT31;54397;47.506;19.158;2023-05-19T21:02:27;18.56;81.50
67572;SHT31;54397;47.506;19.158;2023-05-19T21:05:50;18.61;81.14
67572;SHT31;54397;47.506;19.158;2023-05-19T21:09:11;18.59;81.87
67572;SHT31;54397;47.506;19.158;2023-05-19T21:12:34;18.41;82.51
67572;SHT31;54397;47.506;19.158;2023-05-19T21:15:59;18.30;82.50
67572;SHT31;54397;47.506;19.158;2023-05-19T21:19:23;18.30;82.80
67572;SHT31;54397;47.506;19.158;2023-05-19T21:22:45;18.27;82.74
67572;SHT31;54397;47.506;19.158;2023-05-19T21:26:09;18.28;82.57
67572;SHT31;54397;47.506;19.158;2023-05-19T21:29:31;18.24;82.70
67572;SHT31;54397;47.506;19.158;2023-05-19T21:32:55;18.20;82.99
67572;SHT31;54397;47.506;19.158;2023-05-19T21:36:19;18.20;82.99
67572;SHT31;54397;47.506;19.158;2023-05-19T21:39:43;18.13;83.13
67572;SHT31;54397;47.506;19.158;2023-05-19T21:43:10;18.08;83.21
67572;SHT31;54397;47.506;19.158;2023-05-19T21:46:33;18.07;83.35